Time;durP1;ratioP1;P1;durP2;ratioP2;P2;SDS_P1;SDS_P2;PMS_P1;PMS_P2;Temp;Humidity;BMP_temperature;BMP_pressure;BME280_temperature;BME280_humidity;BME280_pressure;Samples;Min_cycle;Max_cycle;Signal;HPM_P1;HPM_P2
2022/08/14 00:01:10;;;;;;;9.73;5.60;;;;;;;27.27;55.96;98003.41;5092568;28;20017;-48
2022/08/14 00:03:37;;;;;;;11.25;5.35;;;;;;;27.22;56.05;98000.09;5092547;28;20028;-48
2022/08/14 00:06:04;;;;;;;35.30;27.08;;;;;;;27.18;56.51;97993.78;5093780;28;20039;-48
2022/08/14 00:08:30;;;;;;;14.85;6.65;;;;;;;27.25;56.05;97991.41;5093787;28;20035;-47
2022/08/14 00:10:56;;;;;;;12.70;7.13;;;;;;;27.26;56.58;97982.97;5093707;28;20496;-47
2022/08/14 00:13:27;;;;;;;13.07;5.53;;;;;;;27.30;56.26;97991.19;5092376;28;20186;-48
2022/08/14 00:15:54;;;;;;;14.07;6.40;;;;;;;27.37;55.93;97983.38;5093643;28;20466;-47
2022/08/14 00:18:23;;;;;;;10.00;5.18;;;;;;;27.43;55.77;97984.00;5092293;28;20024;-48
2022/08/14 00:20:50;;;;;;;9.50;5.15;;;;;;;27.50;55.22;97965.38;5093516;28;20016;-47
2022/08/14 00:23:17;;;;;;;9.55;5.88;;;;;;;27.52;55.21;97968.53;5092181;28;20035;-48
2022/08/14 00:25:45;;;;;;;17.27;12.07;;;;;;;27.47;55.71;97971.44;5093088;28;20044;-47
2022/08/14 00:28:13;;;;;;;7.70;5.00;;;;;;;27.41;55.93;97973.53;5092840;28;20044;-47
2022/08/14 00:30:39;;;;;;;13.52;5.60;;;;;;;27.38;55.40;97962.63;5093585;28;20035;-48
2022/08/14 00:33:06;;;;;;;15.43;5.63;;;;;;;27.39;56.81;97964.22;5093272;28;20442;-48
2022/08/14 00:35:32;;;;;;;74.57;67.88;;;;;;;27.36;56.65;97960.25;5093212;28;20038;-48
2022/08/14 00:37:59;;;;;;;26.70;15.23;;;;;;;27.26;56.76;97972.19;5093162;28;20024;-50
2022/08/14 00:40:25;;;;;;;13.57;6.70;;;;;;;27.22;57.71;97960.47;5093102;28;20012;-50
2022/08/14 00:42:51;;;;;;;32.30;29.15;;;;;;;27.15;57.68;97954.81;5091749;28;20028;-49
2022/08/14 00:45:18;;;;;;;15.95;7.50;;;;;;;27.10;57.86;97945.03;5091734;28;20469;-49
2022/08/14 00:47:47;;;;;;;8.38;5.63;;;;;;;27.12;57.90;97944.69;5093287;28;20028;-48
2022/08/14 00:50:17;;;;;;;13.82;6.57;;;;;;;27.09;58.45;97948.06;5092952;28;20020;-49
2022/08/14 00:52:44;;;;;;;10.68;6.65;;;;;;;27.06;58.71;97949.50;5093015;28;20028;-49
2022/08/14 00:55:10;;;;;;;11.77;6.25;;;;;;;27.07;59.17;97951.06;5091781;28;20028;-49
2022/08/14 00:57:36;;;;;;;12.98;6.22;;;;;;;27.08;59.20;97954.53;5092736;28;20024;-49
2022/08/14 01:00:07;;;;;;;10.48;6.35;;;;;;;27.08;59.33;97951.84;5092782;28;20555;-49
2022/08/14 01:02:35;;;;;;;10.27;5.40;;;;;;;27.11;59.59;97951.22;5092726;28;20028;-49
2022/08/14 01:05:03;;;;;;;9.93;6.20;;;;;;;27.03;59.85;97938.59;5092702;28;20044;-50
2022/08/14 01:07:29;;;;;;;11.70;6.10;;;;;;;26.94;60.23;97927.84;5092630;28;20039;-49
2022/08/14 01:09:57;;;;;;;6.05;5.25;;;;;;;26.90;60.38;97925.06;5092598;28;20016;-49
2022/08/14 01:12:26;;;;;;;10.13;5.88;;;;;;;26.88;60.58;97927.28;5092452;28;20043;-50
2022/08/14 01:14:54;;;;;;;10.85;6.45;;;;;;;26.85;60.59;97937.91;5091185;28;20016;-50
2022/08/14 01:21:02;;;;;;;9.43;6.30;;;;;;;26.78;60.91;97938.41;5092371;28;20498;-49
2022/08/14 01:22:57;;;;;;;10.63;5.88;;;;;;;26.67;61.29;97937.22;5092752;28;20513;-49
2022/08/14 01:25:23;;;;;;;12.73;6.65;;;;;;;26.57;61.68;97941.03;5092042;28;20040;-50
2022/08/14 01:27:49;;;;;;;14.30;6.18;;;;;;;26.52;62.38;97933.13;5092332;28;20032;-49
2022/08/14 01:30:15;;;;;;;12.10;6.72;;;;;;;26.50;62.53;97928.09;5092199;28;20016;-49
2022/08/14 01:32:41;;;;;;;12.55;7.28;;;;;;;26.49;65.34;97929.19;5090946;28;20021;-49
2022/08/14 01:35:07;;;;;;;13.00;6.70;;;;;;;26.24;64.34;97916.63;5090853;28;20062;-48
2022/08/14 01:37:33;;;;;;;15.30;8.55;;;;;;;26.03;66.24;97916.53;5092105;28;20509;-48
2022/08/14 01:40:00;;;;;;;10.88;6.50;;;;;;;25.84;66.40;97916.88;5090129;28;20050;-49
2022/08/14 01:42:27;;;;;;;17.08;12.27;;;;;;;25.71;66.38;97907.88;5091994;28;20020;-49
2022/08/14 01:44:54;;;;;;;14.95;8.43;;;;;;;25.58;67.96;97901.59;5092033;28;20101;-49
2022/08/14 01:47:20;;;;;;;17.67;12.95;;;;;;;25.45;68.52;97903.31;5091939;28;20027;-49
2022/08/14 01:49:50;;;;;;;16.50;11.13;;;;;;;25.46;68.02;97896.84;5092054;28;20020;-49
2022/08/14 01:52:16;;;;;;;12.75;7.90;;;;;;;25.56;67.73;97887.69;5091979;28;20020;-48
2022/08/14 01:54:42;;;;;;;16.55;8.73;;;;;;;25.63;67.06;97885.28;5090650;28;20027;-48
2022/08/14 01:57:10;;;;;;;13.68;7.63;;;;;;;25.71;67.93;97876.41;5090459;28;20024;-49
2022/08/14 01:59:39;;;;;;;13.20;7.40;;;;;;;25.77;67.70;97871.66;5090730;28;20393;-49
2022/08/14 02:02:16;;;;;;;12.82;9.10;;;;;;;25.66;67.78;97881.19;5091843;28;20020;-49
2022/08/14 02:04:42;;;;;;;14.75;7.57;;;;;;;25.45;67.65;97875.69;5091937;28;20032;-49
2022/08/14 02:07:11;;;;;;;7.57;6.80;;;;;;;25.44;67.68;97879.47;5092071;28;20027;-49
2022/08/14 02:09:38;;;;;;;13.05;6.82;;;;;;;25.44;67.48;97879.47;5090523;28;20126;-48
2022/08/14 02:12:07;;;;;;;12.48;8.02;;;;;;;25.54;66.88;97878.38;5091699;28;20104;-48
2022/08/14 02:14:34;;;;;;;11.65;10.20;;;;;;;25.65;66.69;97891.13;5091787;28;20134;-49
2022/08/14 02:17:00;;;;;;;13.60;8.05;;;;;;;25.77;65.83;97887.00;5091641;28;20020;-49
2022/08/14 02:19:29;;;;;;;13.52;7.50;;;;;;;25.77;65.82;97884.31;5090441;28;20078;-48
2022/08/14 02:21:58;;;;;;;9.00;7.13;;;;;;;25.74;65.76;97893.03;5091693;28;20065;-49
2022/08/14 02:24:28;;;;;;;13.15;7.20;;;;;;;25.73;65.86;97891.44;5091723;28;20021;-50
2022/08/14 02:26:57;;;;;;;12.23;7.63;;;;;;;25.70;65.95;97885.59;5091531;28;20043;-48
2022/08/14 02:29:24;;;;;;;9.60;7.45;;;;;;;25.70;65.94;97901.72;5091691;28;20016;-49
2022/08/14 02:31:53;;;;;;;14.90;7.43;;;;;;;25.68;65.93;97901.25;5090295;28;20056;-49
2022/08/14 02:34:25;;;;;;;15.30;7.45;;;;;;;25.70;65.94;97896.34;5091564;28;20027;-49
2022/08/14 02:36:53;;;;;;;8.90;6.43;;;;;;;25.70;65.83;97904.41;5091439;28;20055;-50
2022/08/14 02:39:19;;;;;;;16.27;7.20;;;;;;;25.65;65.86;97891.13;5091618;28;20012;-48
2022/08/14 02:41:47;;;;;;;10.32;7.60;;;;;;;25.66;65.57;97908.06;5091591;28;20059;-50
2022/08/14 02:44:13;;;;;;;9.90;7.25;;;;;;;25.69;65.53;97907.41;5091577;28;20016;-49
2022/08/14 02:46:43;;;;;;;9.60;7.65;;;;;;;25.75;65.29;97906.13;5091492;28;20030;-47
2022/08/14 02:49:10;;;;;;;11.18;6.97;;;;;;;25.81;65.20;97909.44;5090128;28;20512;-47
2022/08/14 02:51:37;;;;;;;11.80;6.68;;;;;;;25.86;64.83;97920.06;5092203;28;20493;-46
2022/08/14 02:54:05;;;;;;;11.13;6.88;;;;;;;25.90;64.77;97923.72;5093888;28;20394;-48
2022/08/14 02:56:32;;;;;;;10.55;7.25;;;;;;;25.92;64.71;97916.09;5095073;28;20114;-47
2022/08/14 02:59:00;;;;;;;10.88;7.72;;;;;;;25.95;64.51;97904.69;5095155;28;20395;-48
2022/08/14 03:01:27;;;;;;;11.73;7.80;;;;;;;25.98;64.29;97905.94;5095288;28;20051;-47
2022/08/14 03:03:54;;;;;;;9.35;6.78;;;;;;;26.01;64.33;97905.31;5094994;28;20022;-48
2022/08/14 03:06:24;;;;;;;10.85;6.50;;;;;;;26.03;64.20;97893.13;5095049;28;20116;-48
2022/08/14 03:08:51;;;;;;;10.02;6.63;;;;;;;26.08;64.20;97892.97;5094858;28;20025;-48
2022/08/14 03:11:17;;;;;;;10.38;7.10;;;;;;;26.06;63.80;97897.88;5095078;28;20024;-47
2022/08/14 03:13:46;;;;;;;11.65;6.97;;;;;;;26.06;63.81;97899.78;5094798;28;20520;-48
2022/08/14 03:16:14;;;;;;;11.27;6.97;;;;;;;26.06;63.72;97886.34;5094718;28;20028;-48
2022/08/14 03:18:45;;;;;;;12.13;6.88;;;;;;;26.18;63.65;97878.38;5093508;28;20362;-48
2022/08/14 03:21:13;;;;;;;9.15;6.50;;;;;;;26.43;63.26;97881.25;5094939;28;20032;-48
2022/08/14 03:23:41;;;;;;;9.48;5.97;;;;;;;26.77;61.64;97879.53;5093306;28;20028;-48
2022/08/14 03:26:09;;;;;;;12.48;6.72;;;;;;;26.90;61.18;97873.09;5093035;28;20044;-48
2022/08/14 03:28:41;;;;;;;72.60;44.55;;;;;;;27.01;60.55;97868.91;5094503;28;20081;-48
2022/08/14 03:31:07;;;;;;;9.02;6.35;;;;;;;27.08;59.99;97874.56;5094479;28;20099;-48
2022/08/14 03:33:36;;;;;;;13.05;7.30;;;;;;;27.03;60.22;97871.25;5094514;28;20024;-47
2022/08/14 03:36:07;;;;;;;10.32;5.93;;;;;;;26.94;60.08;97873.22;5094556;28;20034;-48
2022/08/14 03:38:33;;;;;;;8.02;6.75;;;;;;;26.68;60.95;97866.91;5094363;28;20459;-48
2022/08/14 03:40:59;;;;;;;10.30;6.40;;;;;;;26.47;61.69;97871.44;5094285;28;20052;-48
2022/08/14 03:43:25;;;;;;;9.30;7.45;;;;;;;26.39;61.98;97869.56;5092940;28;20026;-47
2022/08/14 03:45:51;;;;;;;12.70;7.97;;;;;;;26.37;62.31;97871.81;5094220;28;20027;-48
2022/08/14 03:48:18;;;;;;;14.70;7.10;;;;;;;26.46;62.22;97869.84;5092868;28;20119;-48
2022/08/14 03:50:53;;;;;;;8.25;6.15;;;;;;;26.55;61.55;97867.13;5094376;28;20088;-47
2022/08/14 03:53:19;;;;;;;14.63;6.20;;;;;;;26.59;60.99;97870.75;5094173;28;20085;-47
2022/08/14 03:55:45;;;;;;;15.48;6.38;;;;;;;26.62;60.64;97862.84;5092782;28;20111;-47
2022/08/14 03:58:12;;;;;;;10.07;6.15;;;;;;;26.67;60.13;97861.84;5093975;28;20104;-47
2022/08/14 04:00:39;;;;;;;10.23;6.40;;;;;;;26.73;60.07;97857.06;5092623;28;20035;-47
2022/08/14 04:03:08;;;;;;;11.15;6.63;;;;;;;26.65;59.68;97843.31;5093122;28;20035;-47
2022/08/14 04:05:37;;;;;;;9.05;6.50;;;;;;;26.46;60.16;97838.34;5093895;28;20024;-48
2022/08/14 04:08:04;;;;;;;9.75;6.72;;;;;;;26.29;60.99;97820.41;5094052;28;20370;-48
2022/08/14 04:10:30;;;;;;;13.55;6.88;;;;;;;26.22;61.44;97805.88;5092766;28;20020;-48
2022/08/14 04:12:58;;;;;;;9.50;6.47;;;;;;;26.18;61.58;97815.72;5075467;28;20123;-48
2022/08/14 04:15:25;;;;;;;9.65;6.65;;;;;;;26.13;61.71;97832.03;5093627;28;20031;-47
2022/08/14 04:17:52;;;;;;;10.20;6.60;;;;;;;25.92;62.28;97851.59;5075483;28;20024;-49
2022/08/14 04:20:19;;;;;;;7.85;6.90;;;;;;;25.70;62.87;97860.63;5093515;28;20020;-49
2022/08/14 04:22:45;;;;;;;10.32;7.38;;;;;;;25.59;64.07;97856.69;5093501;28;20397;-49
2022/08/14 04:25:11;;;;;;;8.38;7.15;;;;;;;25.49;64.43;97845.19;5093230;28;20043;-49
2022/08/14 04:27:37;;;;;;;10.15;6.88;;;;;;;25.44;64.96;97841.88;5093516;28;20447;-49
2022/08/14 04:30:04;;;;;;;10.50;7.53;;;;;;;25.43;64.53;97841.06;5093329;28;20490;-49
2022/08/14 04:32:32;;;;;;;13.98;7.22;;;;;;;25.44;64.34;97855.31;5093373;28;20442;-49
2022/08/14 04:35:02;;;;;;;9.00;6.82;;;;;;;25.44;64.16;97855.31;5093260;28;20068;-49
2022/08/14 04:45:55;;;;;;;9.27;8.33;;;;;;;25.58;64.28;97869.34;5093066;28;20081;-48
2022/08/14 04:48:21;;;;;;;10.82;7.72;;;;;;;25.68;64.04;97882.44;5091757;28;20349;-48
2022/08/14 04:50:51;;;;;;;10.50;8.07;;;;;;;25.74;63.79;97883.06;5074760;28;20032;-48
2022/08/14 04:53:19;;;;;;;10.50;8.55;;;;;;;25.82;63.55;97884.16;5092941;28;20513;-47
2022/08/14 04:55:47;;;;;;;13.13;8.60;;;;;;;25.90;63.22;97889.53;5093099;28;20027;-48
2022/08/14 04:58:17;;;;;;;13.32;8.68;;;;;;;26.08;62.58;97903.72;5092726;28;20073;-48
2022/08/14 05:00:49;;;;;;;15.18;7.82;;;;;;;26.16;62.13;97929.00;5091740;28;20020;-47
2022/08/14 05:03:21;;;;;;;11.88;8.35;;;;;;;26.19;62.04;97933.72;5092744;28;20032;-49
2022/08/14 05:05:51;;;;;;;12.27;7.85;;;;;;;26.28;62.03;97931.81;5092714;28;20127;-47
2022/08/14 05:08:17;;;;;;;9.90;7.10;;;;;;;26.42;61.04;97926.22;5092668;28;20030;-48
2022/08/14 05:10:46;;;;;;;11.93;7.55;;;;;;;26.46;60.72;97924.47;5092833;28;20452;-48
2022/08/14 05:13:12;;;;;;;17.33;7.80;;;;;;;26.53;60.22;97918.56;5091304;28;20563;-47
2022/08/14 05:15:40;;;;;;;10.63;7.28;;;;;;;26.62;60.29;97923.94;5092611;28;20026;-48
2022/08/14 05:18:15;;;;;;;12.85;6.55;;;;;;;26.73;59.08;97917.06;5092656;28;20028;-48
2022/08/14 05:20:44;;;;;;;5.75;5.15;;;;;;;26.81;58.30;97916.22;5091085;28;20024;-48
2022/08/14 05:23:13;;;;;;;10.77;5.30;;;;;;;26.82;57.42;97901.66;5092366;28;20048;-48
2022/08/14 05:25:39;;;;;;;11.43;5.13;;;;;;;26.75;57.51;97914.84;5092043;28;20574;-48
2022/08/14 05:28:10;;;;;;;7.53;4.82;;;;;;;26.76;57.20;97907.53;5092321;28;20026;-48
2022/08/14 05:30:37;;;;;;;10.88;5.63;;;;;;;26.74;57.41;97920.53;5092301;28;20024;-47
2022/08/14 05:33:03;;;;;;;14.07;5.88;;;;;;;26.60;59.60;97942.31;5092237;28;20017;-48
2022/08/14 05:35:31;;;;;;;21.92;6.10;;;;;;;26.17;61.87;97954.78;5092214;28;20498;-47
2022/08/14 05:38:13;;;;;;;13.32;5.93;;;;;;;25.58;63.96;97939.22;5091996;28;20548;-47
2022/08/14 05:40:40;;;;;;;66.13;10.20;;;;;;;24.66;65.96;97925.81;5090895;28;20042;-48
2022/08/14 05:43:06;;;;;;;143.85;19.25;;;;;;;22.70;68.01;98074.03;5092111;28;20024;-48
2022/08/14 05:45:34;;;;;;;27.38;9.50;;;;;;;21.10;73.63;98073.88;5092093;28;20493;-47
2022/08/14 05:48:04;;;;;;;34.15;11.75;;;;;;;20.25;77.80;98125.81;5091999;28;20489;-48
2022/08/14 05:50:30;;;;;;;16.02;7.10;;;;;;;19.75;80.31;98125.81;5090753;28;20448;-48
2022/08/14 05:52:56;;;;;;;19.20;9.07;;;;;;;19.38;82.14;98156.28;5091959;28;20048;-47
2022/08/14 05:55:22;;;;;;;21.17;9.02;;;;;;;19.20;84.23;98162.97;5090684;28;20059;-50
2022/08/14 05:57:57;;;;;;;29.42;10.57;;;;;;;19.07;85.79;98185.59;5091891;28;20024;-47
2022/08/14 06:00:25;;;;;;;22.30;10.38;;;;;;;18.93;86.46;98187.19;5091950;28;20078;-47
2022/08/14 06:02:51;;;;;;;24.52;10.40;;;;;;;19.07;87.85;98169.63;5090526;28;20024;-47
2022/08/14 06:05:17;;;;;;;224.57;204.45;;;;;;;19.38;89.01;98190.06;5090529;28;20036;-48
2022/08/14 06:07:42;;;;;;;32.95;17.30;;;;;;;19.87;89.93;98190.19;5090482;28;20031;-48
2022/08/14 06:10:09;;;;;;;17.83;9.80;;;;;;;20.03;89.75;98182.94;5090490;28;20107;-49
2022/08/14 06:12:36;;;;;;;16.27;9.00;;;;;;;20.13;90.17;98176.75;5090496;28;20024;-48
2022/08/14 06:15:02;;;;;;;28.27;9.93;;;;;;;20.33;90.95;98179.31;5092096;28;20028;-49
2022/08/14 06:17:27;;;;;;;21.98;10.32;;;;;;;20.54;91.38;98163.16;5091640;28;20027;-49
2022/08/14 06:19:53;;;;;;;20.90;9.48;;;;;;;20.61;91.35;98170.91;5090409;28;20450;-49
2022/08/14 06:22:21;;;;;;;26.60;12.35;;;;;;;20.74;91.65;98171.06;5090374;28;20024;-50
2022/08/14 06:24:47;;;;;;;22.42;10.70;;;;;;;20.78;91.25;98170.47;5090167;28;20039;-50
2022/08/14 06:27:13;;;;;;;27.58;11.32;;;;;;;20.86;91.99;98173.31;5092111;28;20024;-49
2022/08/14 06:29:38;;;;;;;25.33;11.55;;;;;;;20.91;91.91;98189.31;5095763;28;20509;-50
2022/08/14 06:32:04;;;;;;;25.23;11.52;;;;;;;21.01;92.13;98191.09;5095661;28;20024;-50
2022/08/14 06:34:31;;;;;;;17.58;10.45;;;;;;;21.00;91.99;98210.81;5094303;28;20027;-50
2022/08/14 06:36:57;;;;;;;18.55;8.75;;;;;;;20.84;90.85;98228.03;5095531;28;20027;-50
2022/08/14 06:39:24;;;;;;;20.50;8.85;;;;;;;20.44;90.10;98219.22;5094168;28;20032;-49
2022/08/14 06:41:50;;;;;;;17.55;8.77;;;;;;;20.29;91.16;98206.78;5094397;28;20388;-49
2022/08/14 06:44:16;;;;;;;21.92;8.70;;;;;;;20.43;92.16;98206.97;5094218;28;20114;-49
2022/08/14 06:46:42;;;;;;;22.00;8.65;;;;;;;20.36;91.68;98207.25;5095400;28;20389;-50
2022/08/14 06:49:07;;;;;;;24.15;11.70;;;;;;;20.30;91.81;98214.50;5094044;28;20021;-48
2022/08/14 06:51:34;;;;;;;23.83;9.23;;;;;;;20.24;92.18;98215.63;5095302;28;20024;-48
2022/08/14 06:54:00;;;;;;;24.55;10.68;;;;;;;20.14;92.27;98219.13;5095304;28;20020;-49
2022/08/14 06:56:25;;;;;;;18.77;10.30;;;;;;;20.36;93.82;98223.25;5095156;28;20027;-49
2022/08/14 06:58:51;;;;;;;27.88;12.38;;;;;;;20.43;93.73;98220.31;5093885;28;20047;-49
2022/08/14 07:06:45;;;;;;;37.35;12.77;;;;;;;20.45;93.19;98245.59;5095288;28;20043;-50
2022/08/14 07:09:10;;;;;;;31.23;12.75;;;;;;;20.32;93.47;98248.88;5094986;28;20024;-50
2022/08/14 07:11:37;;;;;;;30.92;19.67;;;;;;;20.46;94.07;98254.38;5093594;28;20031;-49
2022/08/14 07:14:03;;;;;;;21.20;12.05;;;;;;;20.35;93.10;98265.09;5094864;28;20024;-50
2022/08/14 07:16:29;;;;;;;18.15;10.13;;;;;;;20.17;92.33;98265.72;5094733;28;20085;-49
2022/08/14 07:18:56;;;;;;;19.98;12.52;;;;;;;20.03;92.28;98278.84;5094895;28;20056;-48
2022/08/14 07:21:21;;;;;;;26.27;14.75;;;;;;;20.05;93.23;98274.03;5093476;28;20058;-47
2022/08/14 07:23:47;;;;;;;28.48;12.05;;;;;;;20.34;94.56;98255.53;5094706;28;20128;-49
2022/08/14 07:26:13;;;;;;;24.00;12.35;;;;;;;20.49;94.57;98245.84;5094266;28;20583;-49
2022/08/14 07:28:39;;;;;;;22.17;10.70;;;;;;;20.54;94.98;98243.13;5094645;28;20060;-49
2022/08/14 07:31:08;;;;;;;22.50;11.35;;;;;;;20.36;94.08;98244.56;5094631;28;20137;-49
2022/08/14 07:33:44;;;;;;;23.23;11.05;;;;;;;20.31;94.28;98258.72;5094504;28;20030;-48
2022/08/14 07:36:12;;;;;;;20.60;10.38;;;;;;;20.02;93.04;98285.25;5094505;28;20081;-49
2022/08/14 07:38:39;;;;;;;18.25;11.57;;;;;;;19.75;92.17;98304.22;5091772;28;20104;-49
2022/08/14 07:41:07;;;;;;;17.05;10.23;;;;;;;19.60;92.25;98313.00;5094403;28;20024;-50
2022/08/14 07:43:34;;;;;;;21.90;15.70;;;;;;;19.54;92.14;98314.09;5094358;28;20565;-49
2022/08/14 07:45:59;;;;;;;19.15;7.88;;;;;;;19.50;91.96;98308.50;5094307;28;20429;-48
2022/08/14 07:48:25;;;;;;;15.30;9.65;;;;;;;19.43;92.68;98299.97;5094261;28;20024;-49
2022/08/14 07:50:51;;;;;;;12.73;7.78;;;;;;;19.33;92.24;98308.75;5094241;28;20490;-50
2022/08/14 07:53:18;;;;;;;17.75;8.70;;;;;;;19.29;92.80;98288.25;5092835;28;20029;-49
2022/08/14 07:55:47;;;;;;;18.00;10.45;;;;;;;19.29;93.61;98296.25;5094113;28;20061;-49
2022/08/14 07:58:19;;;;;;;14.63;11.55;;;;;;;19.24;94.00;98289.06;5093978;28;20052;-49
2022/08/14 08:00:45;;;;;;;17.95;10.38;;;;;;;19.24;94.33;98302.38;5093935;28;20056;-49
2022/08/14 08:03:11;;;;;;;14.15;8.45;;;;;;;19.25;94.97;98317.25;5093992;28;20020;-49
2022/08/14 08:05:38;;;;;;;8.30;7.50;;;;;;;19.30;95.29;98333.25;5092579;28;20024;-49
2022/08/14 08:08:07;;;;;;;13.63;8.60;;;;;;;19.28;94.49;98346.00;5093875;28;20034;-49
2022/08/14 08:10:33;;;;;;;14.40;7.82;;;;;;;19.21;93.99;98339.34;5093808;28;20123;-49
2022/08/14 08:13:02;;;;;;;18.85;10.30;;;;;;;19.18;94.52;98347.88;5093793;28;20497;-49
2022/08/14 08:15:31;;;;;;;18.50;9.80;;;;;;;19.30;95.28;98348.41;5093681;28;20020;-50
2022/08/14 08:18:01;;;;;;;14.15;8.48;;;;;;;19.37;95.28;98346.28;5092290;28;20413;-49
2022/08/14 08:20:27;;;;;;;17.58;10.70;;;;;;;19.38;95.42;98350.53;5093578;28;20062;-50
2022/08/14 08:22:55;;;;;;;9.43;7.57;;;;;;;19.42;95.07;98345.47;5092245;28;20059;-49
2022/08/14 08:25:22;;;;;;;18.35;9.88;;;;;;;19.34;95.14;98344.16;5093247;28;20413;-51
2022/08/14 08:28:07;;;;;;;6.45;5.63;;;;;;;19.39;95.13;98343.34;5093514;28;20051;-51
2022/08/14 08:30:36;;;;;;;14.07;8.45;;;;;;;19.33;94.97;98326.59;5093396;28;20034;-50
2022/08/14 08:33:06;;;;;;;8.45;6.40;;;;;;;19.40;95.38;98328.97;5093418;28;20099;-50
2022/08/14 08:35:34;;;;;;;12.95;6.55;;;;;;;19.35;94.72;98317.25;5091993;28;20020;-49
2022/08/14 08:38:09;;;;;;;17.20;7.47;;;;;;;19.43;95.61;98307.16;5093247;28;20012;-50
2022/08/14 08:40:39;;;;;;;11.38;5.63;;;;;;;19.46;95.64;98303.97;5091933;28;20543;-48
2022/08/14 08:43:07;;;;;;;9.50;4.85;;;;;;;19.23;92.96;98306.09;5093280;28;20375;-49
2022/08/14 08:45:36;;;;;;;9.13;3.90;;;;;;;19.16;92.67;98290.41;5093079;28;20027;-49
2022/08/14 08:48:03;;;;;;;10.05;3.92;;;;;;;19.17;93.38;98283.22;5091746;28;20093;-47
2022/08/14 08:50:33;;;;;;;7.10;4.00;;;;;;;19.18;93.60;98294.66;5092569;28;20024;-47
2022/08/14 08:53:02;;;;;;;12.05;4.20;;;;;;;19.18;93.51;98315.97;5092956;28;20389;-47
2022/08/14 08:55:39;;;;;;;9.95;5.32;;;;;;;19.15;93.96;98320.72;5092876;28;20081;-48
2022/08/14 08:58:11;;;;;;;7.13;3.83;;;;;;;19.10;92.72;98325.25;5092858;28;20390;-47
2022/08/14 09:00:39;;;;;;;7.65;3.70;;;;;;;19.00;92.55;98325.25;5093079;28;20043;-49
2022/08/14 09:03:06;;;;;;;6.65;3.40;;;;;;;19.00;93.64;98342.00;5092694;28;20020;-50
2022/08/14 09:05:34;;;;;;;8.93;2.80;;;;;;;18.96;93.29;98315.13;5092703;28;20024;-49
2022/08/14 09:08:11;;;;;;;3.17;2.70;;;;;;;18.93;93.59;98299.72;5092687;28;20441;-48
2022/08/14 09:10:37;;;;;;;9.10;5.15;;;;;;;19.03;94.77;98295.44;5092589;28;20555;-48
2022/08/14 09:13:03;;;;;;;10.68;6.35;;;;;;;19.14;95.63;98281.09;5092547;28;20063;-47
2022/08/14 09:15:29;;;;;;;8.63;4.95;;;;;;;19.13;96.02;98274.16;5092548;28;20032;-49
2022/08/14 09:17:56;;;;;;;8.07;4.68;;;;;;;19.13;96.67;98266.19;5091154;28;20512;-48
2022/08/14 09:20:22;;;;;;;0.00;0.00;;;;;;;19.21;97.26;98262.19;5092455;28;20028;-49
2022/08/14 09:22:49;;;;;;;0.47;0.47;;;;;;;19.26;97.72;98265.66;5091141;28;20451;-50
2022/08/14 09:25:16;;;;;;;0.17;0.17;;;;;;;19.37;97.88;98279.75;5092240;28;20422;-50
2022/08/14 09:27:44;;;;;;;0.00;0.00;;;;;;;19.43;97.45;98272.56;5092279;28;20577;-48
2022/08/14 09:30:10;;;;;;;0.00;0.00;;;;;;;19.54;97.69;98268.84;5091069;28;20120;-48
2022/08/14 09:32:56;;;;;;;0.15;0.15;;;;;;;19.63;97.88;98275.19;5092345;28;20024;-48
2022/08/14 09:35:53;;;;;;;0.00;0.00;;;;;;;19.69;97.38;98300.72;5092350;28;20020;-48
2022/08/14 09:38:24;;;;;;;0.08;0.08;;;;;;;19.73;97.31;98320.44;5092225;28;20109;-49
2022/08/14 09:41:09;;;;;;;2.35;0.80;;;;;;;19.81;97.79;98319.13;5092270;28;20024;-49
2022/08/14 09:43:44;;;;;;;0.00;0.00;;;;;;;19.98;98.24;98334.81;5092276;28;20032;-49
2022/08/14 09:46:11;;;;;;;0.00;0.00;;;;;;;20.15;98.84;98324.63;5092160;28;20020;-49
2022/08/14 09:48:37;;;;;;;0.10;0.10;;;;;;;20.25;98.50;98313.13;5090774;28;20032;-50
2022/08/14 09:51:06;;;;;;;0.55;0.47;;;;;;;20.23;98.03;98295.81;5090676;28;20020;-50
2022/08/14 09:53:41;;;;;;;0.00;0.00;;;;;;;20.18;97.58;98291.28;5091991;28;20397;-50
2022/08/14 09:56:10;;;;;;;0.00;0.00;;;;;;;20.26;97.54;98304.06;5092037;28;20032;-50
2022/08/14 09:58:43;;;;;;;0.00;0.00;;;;;;;20.44;98.08;98299.19;5091983;28;20438;-50
2022/08/14 10:01:14;;;;;;;0.00;0.00;;;;;;;20.59;98.05;98301.03;5091203;28;20021;-50
2022/08/14 10:03:54;;;;;;;0.00;0.00;;;;;;;20.58;97.00;98316.16;5091950;28;20032;-50
2022/08/14 10:06:24;;;;;;;0.00;0.00;;;;;;;20.71;97.12;98314.81;5091900;28;20028;-50
2022/08/14 10:08:53;;;;;;;0.00;0.00;;;;;;;20.90;97.97;98321.06;5091855;28;20512;-48
2022/08/14 10:11:28;;;;;;;0.98;0.52;;;;;;;21.26;99.09;98317.38;5091713;28;20024;-47
2022/08/14 10:14:01;;;;;;;0.00;0.00;;;;;;;21.78;99.18;98307.84;5091898;28;20514;-48
2022/08/14 10:16:29;;;;;;;0.08;0.08;;;;;;;21.74;97.36;98304.16;5091973;28;20500;-47
2022/08/14 10:19:12;;;;;;;0.00;0.00;;;;;;;21.67;96.59;98298.31;5091656;28;20043;-48
2022/08/14 10:21:40;;;;;;;0.00;0.00;;;;;;;21.63;96.49;98297.31;5090444;28;20021;-49
2022/08/14 10:24:09;;;;;;;0.00;0.00;;;;;;;22.05;97.18;98293.91;5091815;28;20103;-48
2022/08/14 10:26:36;;;;;;;0.13;0.13;;;;;;;22.47;95.82;98289.69;5091445;28;20040;-47
2022/08/14 10:29:09;;;;;;;0.00;0.00;;;;;;;22.67;95.07;98267.22;5091625;28;20517;-47
2022/08/14 10:31:36;;;;;;;0.20;0.20;;;;;;;23.25;95.78;98273.31;5091567;28;20099;-48
2022/08/14 10:34:11;;;;;;;0.00;0.00;;;;;;;23.49;94.98;98273.94;5091658;28;20393;-47
2022/08/14 10:36:40;;;;;;;2.72;0.40;;;;;;;23.61;93.63;98275.38;5091572;28;20021;-47
2022/08/14 10:39:26;;;;;;;0.17;0.17;;;;;;;23.86;93.16;98258.81;5091629;28;20400;-48
2022/08/14 10:42:10;;;;;;;0.00;0.00;;;;;;;23.91;90.03;98256.06;5091301;28;20047;-49
2022/08/14 10:44:44;;;;;;;0.00;0.00;;;;;;;24.07;90.04;98248.50;5091599;28;20020;-49
2022/08/14 10:47:11;;;;;;;3.42;0.43;;;;;;;24.25;90.56;98254.06;5091506;28;20265;-49
2022/08/14 10:49:46;;;;;;;0.75;0.30;;;;;;;24.24;90.47;98247.88;5091469;28;20109;-49
2022/08/14 10:52:20;;;;;;;0.00;0.00;;;;;;;24.49;90.94;98233.13;5090330;28;20038;-48
2022/08/14 10:54:47;;;;;;;0.52;0.28;;;;;;;24.69;90.39;98225.75;5091528;28;20024;-49
2022/08/14 10:57:24;;;;;;;0.00;0.00;;;;;;;24.82;89.70;98216.03;5091282;28;20016;-49
2022/08/14 10:59:54;;;;;;;0.52;0.52;;;;;;;24.80;89.04;98210.97;5091440;28;20032;-49
2022/08/14 11:02:28;;;;;;;0.00;0.00;;;;;;;24.44;88.62;98201.03;5091297;28;20383;-49
2022/08/14 11:05:07;;;;;;;0.00;0.00;;;;;;;24.15;90.16;98193.38;5090078;28;20024;-48
2022/08/14 11:07:38;;;;;;;0.00;0.00;;;;;;;23.85;90.89;98194.81;5090095;28;20122;-48
2022/08/14 11:10:12;;;;;;;0.00;0.00;;;;;;;23.70;92.96;98188.66;5091553;28;20424;-47
2022/08/14 11:12:46;;;;;;;0.00;0.00;;;;;;;23.60;91.77;98167.41;5092068;28;20028;-47
2022/08/14 11:15:27;;;;;;;0.10;0.10;;;;;;;23.17;88.18;98148.94;5093576;28;20028;-48
2022/08/14 11:17:55;;;;;;;0.00;0.00;;;;;;;23.01;89.58;98135.03;5094775;28;20031;-47
2022/08/14 11:20:26;;;;;;;0.00;0.00;;;;;;;22.91;88.72;98132.53;5094773;28;20100;-48
2022/08/14 11:22:57;;;;;;;0.00;0.00;;;;;;;22.61;82.70;98123.16;5093530;28;20036;-48
2022/08/14 11:25:25;;;;;;;0.90;0.90;;;;;;;22.39;83.24;98121.88;5094459;28;20036;-49
2022/08/14 11:27:57;;;;;;;0.13;0.13;;;;;;;22.18;82.28;98105.34;5094906;28;20032;-49
2022/08/14 11:30:26;;;;;;;0.00;0.00;;;;;;;21.99;81.44;98096.53;5093362;28;20035;-48
2022/08/14 11:32:53;;;;;;;0.00;0.00;;;;;;;21.84;82.06;98089.53;5094525;28;20020;-48
2022/08/14 11:35:25;;;;;;;0.00;0.00;;;;;;;21.79;82.23;98084.25;5094486;28;20024;-48
2022/08/14 11:37:57;;;;;;;0.00;0.00;;;;;;;21.79;83.86;98062.88;5094481;28;20042;-49
2022/08/14 11:40:26;;;;;;;0.00;0.00;;;;;;;21.84;83.88;98046.78;5093105;28;20162;-49
2022/08/14 11:42:55;;;;;;;0.00;0.00;;;;;;;21.88;83.92;98037.13;5094478;28;20024;-49
2022/08/14 11:45:31;;;;;;;0.00;0.00;;;;;;;21.97;81.58;98022.00;5094547;28;20051;-47
2022/08/14 11:47:58;;;;;;;0.00;0.00;;;;;;;22.08;79.61;98011.97;5094352;28;20439;-49
2022/08/14 11:50:31;;;;;;;0.00;0.00;;;;;;;22.28;80.61;98010.88;5094249;28;20023;-48